Time,TemperatureF,DewpointF,PressureIn,WindDirection,WindDirectionDegrees,WindSpeedMPH,WindSpeedGustMPH,Humidity,HourlyPrecipIn,Conditions,Clouds,dailyrainin,SoftwareType,DateUTC
2013-02-23 00:11:00,28.8,19.0,30.24,SSW,212,0.0,1.0,67,0.00,,,0.00,weatherlink.com 1.10,2013-02-23 05:11:00,
2013-02-23 00:25:00,28.6,20.0,30.24,NNE,26,0.0,0.0,69,0.00,,,0.00,weatherlink.com 1.10,2013-02-23 05:25:00,
2013-02-23 00:41:00,28.6,19.0,30.23,WSW,253,2.0,4.0,68,0.00,,,0.00,weatherlink.com 1.10,2013-02-23 05:41:00,
2013-02-23 00:55:00,28.4,20.0,30.23,SSE,150,1.0,2.0,70,0.00,,,0.00,weatherlink.com 1.10,2013-02-23 05:55:00,
2013-02-23 01:11:00,28.6,20.0,30.22,SE,124,0.0,3.0,70,0.00,,,0.00,weatherlink.com 1.10,2013-02-23 06:11:00,
2013-02-23 01:26:00,29.1,20.0,30.22,South,190,1.0,5.0,68,0.00,,,0.00,weatherlink.com 1.10,2013-02-23 06:26:00,
2013-02-23 01:41:00,29.2,20.0,30.21,SW,235,0.0,2.0,68,0.00,,,0.00,weatherlink.com 1.10,2013-02-23 06:41:00,
2013-02-23 01:56:00,29.2,20.0,30.21,West,281,0.0,2.0,68,0.00,,,0.00,weatherlink.com 1.10,2013-02-23 06:56:00,
2013-02-23 02:11:00,29.1,20.0,30.20,NNE,23,0.0,3.0,69,0.00,,,0.00,weatherlink.com 1.10,2013-02-23 07:11:00,
2013-02-23 02:26:00,29.2,20.0,30.19,South,189,2.0,3.0,69,0.00,,,0.00,weatherlink.com 1.10,2013-02-23 07:26:00,
2013-02-23 02:41:00,29.2,21.0,30.19,South,188,3.0,5.0,70,0.00,,,0.00,weatherlink.com 1.10,2013-02-23 07:41:00,
2013-02-23 02:56:00,29.2,21.0,30.18,SW,219,0.0,4.0,71,0.00,,,0.00,weatherlink.com 1.10,2013-02-23 07:56:00,
2013-02-23 03:11:00,29.2,21.0,30.18,WNW,283,0.0,6.0,71,0.00,,,0.00,weatherlink.com 1.10,2013-02-23 08:11:00,
2013-02-23 03:26:00,29.1,21.0,30.17,East,84,1.0,4.0,71,0.00,,,0.00,weatherlink.com 1.10,2013-02-23 08:26:00,
2013-02-23 03:41:00,28.9,21.0,30.17,WNW,295,3.0,9.0,71,0.00,,,0.00,weatherlink.com 1.10,2013-02-23 08:41:00,
2013-02-23 03:56:00,28.9,21.0,30.17,West,281,2.0,5.0,71,0.00,,,0.00,weatherlink.com 1.10,2013-02-23 08:56:00,
2013-02-23 04:11:00,28.8,21.0,30.17,West,277,0.0,6.0,72,0.00,,,0.00,weatherlink.com 1.10,2013-02-23 09:11:00,
2013-02-23 04:26:00,28.8,22.0,30.17,SSW,212,0.0,4.0,74,0.00,,,0.00,weatherlink.com 1.10,2013-02-23 09:26:00,
2013-02-23 04:41:00,28.8,22.0,30.17,WNW,291,1.0,5.0,75,0.00,,,0.00,weatherlink.com 1.10,2013-02-23 09:41:00,
2013-02-23 04:56:00,28.9,22.0,30.16,WSW,248,6.0,9.0,76,0.00,,,0.00,weatherlink.com 1.10,2013-02-23 09:56:00,
2013-02-23 05:11:00,28.9,23.0,30.16,SW,215,0.0,8.0,77,0.00,,,0.00,weatherlink.com 1.10,2013-02-23 10:11:00,
2013-02-23 05:26:00,29.0,23.0,30.15,South,174,1.0,6.0,79,0.00,,,0.00,weatherlink.com 1.10,2013-02-23 10:26:00,
2013-02-23 05:42:00,29.2,24.0,30.14,West,259,0.0,7.0,80,0.00,,,0.00,weatherlink.com 1.10,2013-02-23 10:42:00,
2013-02-23 05:56:00,29.3,24.0,30.14,SW,217,0.0,5.0,81,0.00,,,0.00,weatherlink.com 1.10,2013-02-23 10:56:00,
2013-02-23 06:11:00,29.4,24.0,30.14,NW,304,1.0,5.0,81,0.00,,,0.00,weatherlink.com 1.10,2013-02-23 11:11:00,
2013-02-23 06:27:00,29.5,24.0,30.14,WSW,254,0.0,7.0,81,0.00,,,0.00,weatherlink.com 1.10,2013-02-23 11:27:00,
2013-02-23 06:41:00,29.6,24.0,30.14,SSW,204,0.0,2.0,81,0.00,,,0.00,weatherlink.com 1.10,2013-02-23 11:41:00,
2013-02-23 06:56:00,29.6,24.0,30.14,West,280,0.0,9.0,81,0.00,,,0.00,weatherlink.com 1.10,2013-02-23 11:56:00,
2013-02-23 07:11:00,29.6,25.0,30.14,WSW,238,0.0,5.0,82,0.00,,,0.00,weatherlink.com 1.10,2013-02-23 12:11:00,
2013-02-23 07:27:00,29.7,25.0,30.14,ENE,72,0.0,6.0,82,0.00,,,0.00,weatherlink.com 1.10,2013-02-23 12:27:00,
2013-02-23 07:42:00,29.9,25.0,30.14,WSW,238,0.0,8.0,82,0.00,,,0.00,weatherlink.com 1.10,2013-02-23 12:42:00,
2013-02-23 07:57:00,30.1,25.0,30.14,WSW,253,0.0,7.0,81,0.00,,,0.00,weatherlink.com 1.10,2013-02-23 12:57:00,
2013-02-23 08:12:00,30.4,25.0,30.13,SSE,160,0.0,5.0,81,0.00,,,0.00,weatherlink.com 1.10,2013-02-23 13:12:00,
2013-02-23 08:27:00,30.4,25.0,30.12,WSW,245,0.0,6.0,81,0.00,,,0.00,weatherlink.com 1.10,2013-02-23 13:27:00,
2013-02-23 08:42:00,30.7,26.0,30.11,SW,224,0.0,6.0,81,0.00,,,0.00,weatherlink.com 1.10,2013-02-23 13:42:00,
2013-02-23 08:57:00,30.8,25.0,30.11,SSW,207,5.0,7.0,80,0.00,,,0.00,weatherlink.com 1.10,2013-02-23 13:57:00,
2013-02-23 09:12:00,30.9,25.0,30.10,West,269,0.0,7.0,80,0.00,,,0.00,weatherlink.com 1.10,2013-02-23 14:12:00,
2013-02-23 09:27:00,31.0,26.0,30.10,West,276,0.0,5.0,80,0.00,,,0.00,weatherlink.com 1.10,2013-02-23 14:27:00,
2013-02-23 09:42:00,31.0,26.0,30.11,East,99,0.0,6.0,80,0.00,,,0.00,weatherlink.com 1.10,2013-02-23 14:42:00,
2013-02-23 09:57:00,31.0,26.0,30.09,West,269,0.0,3.0,80,0.00,,,0.00,weatherlink.com 1.10,2013-02-23 14:57:00,
2013-02-23 10:12:00,31.0,26.0,30.09,ESE,113,1.0,4.0,81,0.00,,,0.00,weatherlink.com 1.10,2013-02-23 15:12:00,
2013-02-23 10:27:00,31.3,26.0,30.08,South,183,1.0,7.0,82,0.00,,,0.00,weatherlink.com 1.10,2013-02-23 15:27:00,
2013-02-23 10:42:00,31.5,27.0,30.08,SW,214,8.0,10.0,82,0.00,,,0.00,weatherlink.com 1.10,2013-02-23 15:42:00,
2013-02-23 10:57:00,31.5,27.0,30.08,ESE,114,4.0,10.0,82,0.00,,,0.00,weatherlink.com 1.10,2013-02-23 15:57:00,
2013-02-23 11:14:00,31.4,27.0,30.07,West,264,1.0,5.0,83,0.00,,,0.00,weatherlink.com 1.10,2013-02-23 16:14:00,
2013-02-23 11:27:00,32.1,28.0,30.07,ENE,69,0.0,4.0,83,0.00,,,0.00,weatherlink.com 1.10,2013-02-23 16:27:00,
2013-02-23 11:42:00,32.1,28.0,30.06,West,261,0.0,5.0,84,0.00,,,0.00,weatherlink.com 1.10,2013-02-23 16:42:00,
2013-02-23 11:57:00,32.6,28.0,30.05,West,275,0.0,3.0,83,0.00,,,0.00,weatherlink.com 1.10,2013-02-23 16:57:00,
2013-02-23 12:12:00,32.6,28.0,30.04,ESE,107,2.0,4.0,82,0.00,,,0.00,weatherlink.com 1.10,2013-02-23 17:12:00,
2013-02-23 12:27:00,32.5,28.0,30.04,ESE,108,1.0,4.0,84,0.00,,,0.00,weatherlink.com 1.10,2013-02-23 17:27:00,
2013-02-23 12:42:00,31.8,29.0,30.03,NE,34,1.0,3.0,88,0.00,,,0.00,weatherlink.com 1.10,2013-02-23 17:42:00,
2013-02-23 12:57:00,32.1,29.0,30.02,ESE,110,0.0,4.0,89,0.00,,,0.00,weatherlink.com 1.10,2013-02-23 17:57:00,
2013-02-23 13:12:00,32.4,30.0,30.02,NW,307,1.0,6.0,89,0.00,,,0.00,weatherlink.com 1.10,2013-02-23 18:12:00,
2013-02-23 13:27:00,32.7,30.0,30.02,NE,44,0.0,5.0,89,0.00,,,0.00,weatherlink.com 1.10,2013-02-23 18:27:00,
2013-02-23 13:42:00,33.0,30.0,30.00,SW,221,2.0,3.0,88,0.00,,,0.00,weatherlink.com 1.10,2013-02-23 18:42:00,
2013-02-23 13:57:00,33.1,30.0,30.00,NW,307,1.0,7.0,87,0.00,,,0.00,weatherlink.com 1.10,2013-02-23 18:57:00,
2013-02-23 14:12:00,32.4,30.0,30.00,NNE,14,3.0,4.0,91,0.00,,,0.00,weatherlink.com 1.10,2013-02-23 19:12:00,
2013-02-23 14:28:00,32.7,30.0,29.99,ENE,61,0.0,5.0,90,0.00,,,0.00,weatherlink.com 1.10,2013-02-23 19:28:00,
2013-02-23 14:43:00,33.6,30.0,29.99,North,352,0.0,2.0,87,0.00,,,0.00,weatherlink.com 1.10,2013-02-23 19:43:00,
2013-02-23 14:58:00,33.8,30.0,29.99,East,96,5.0,7.0,85,0.00,,,0.00,weatherlink.com 1.10,2013-02-23 19:58:00,
2013-02-23 15:13:00,33.3,30.0,29.99,NW,316,3.0,6.0,86,0.00,,,0.00,weatherlink.com 1.10,2013-02-23 20:13:00,
2013-02-23 15:28:00,32.6,30.0,29.99,NNW,335,1.0,4.0,89,0.00,,,0.00,weatherlink.com 1.10,2013-02-23 20:28:00,
2013-02-23 15:43:00,32.4,30.0,29.99,WNW,297,0.0,4.0,90,0.00,,,0.00,weatherlink.com 1.10,2013-02-23 20:43:00,
2013-02-23 15:58:00,32.5,29.0,29.98,SW,231,0.0,1.0,88,0.00,,,0.00,weatherlink.com 1.10,2013-02-23 20:58:00,
2013-02-23 16:13:00,32.4,29.0,29.98,NE,43,0.0,4.0,88,0.00,,,0.00,weatherlink.com 1.10,2013-02-23 21:13:00,
2013-02-23 16:28:00,32.3,29.0,29.98,NNW,343,3.0,3.0,88,0.00,,,0.00,weatherlink.com 1.10,2013-02-23 21:28:00,
2013-02-23 16:43:00,32.4,29.0,29.97,North,355,0.0,3.0,87,0.00,,,0.00,weatherlink.com 1.10,2013-02-23 21:43:00,
2013-02-23 16:58:00,32.5,29.0,29.96,WSW,242,1.0,4.0,87,0.00,,,0.00,weatherlink.com 1.10,2013-02-23 21:58:00,
2013-02-23 17:13:00,32.7,29.0,29.96,SSW,194,0.0,4.0,86,0.00,,,0.00,weatherlink.com 1.10,2013-02-23 22:13:00,
2013-02-23 17:28:00,32.9,29.0,29.96,West,274,0.0,6.0,85,0.00,,,0.00,weatherlink.com 1.10,2013-02-23 22:28:00,
2013-02-23 17:43:00,32.7,28.0,29.96,East,94,1.0,4.0,84,0.00,,,0.00,weatherlink.com 1.10,2013-02-23 22:43:00,
2013-02-23 17:58:00,32.6,29.0,29.95,NW,318,0.0,6.0,85,0.00,,,0.00,weatherlink.com 1.10,2013-02-23 22:58:00,
2013-02-23 18:13:00,32.5,29.0,29.95,SSW,203,1.0,5.0,86,0.00,,,0.00,weatherlink.com 1.10,2013-02-23 23:13:00,
2013-02-23 18:28:00,32.4,29.0,29.95,ENE,61,0.0,3.0,87,0.00,,,0.00,weatherlink.com 1.10,2013-02-23 23:28:00,
2013-02-23 18:43:00,32.5,29.0,29.95,East,94,2.0,2.0,86,0.00,,,0.00,weatherlink.com 1.10,2013-02-23 23:43:00,
2013-02-23 18:58:00,32.4,29.0,29.95,ESE,117,0.0,3.0,88,0.00,,,0.00,weatherlink.com 1.10,2013-02-23 23:58:00,
2013-02-23 19:13:00,32.2,29.0,29.94,East,83,0.0,3.0,89,0.00,,,0.00,weatherlink.com 1.10,2013-02-24 00:13:00,
2013-02-23 19:28:00,32.2,29.0,29.94,East,101,1.0,4.0,88,0.00,,,0.00,weatherlink.com 1.10,2013-02-24 00:28:00,
2013-02-23 19:43:00,32.5,29.0,29.93,West,271,0.0,2.0,85,0.00,,,0.00,weatherlink.com 1.10,2013-02-24 00:43:00,
2013-02-23 19:58:00,32.7,28.0,29.94,NNE,23,0.0,3.0,84,0.00,,,0.00,weatherlink.com 1.10,2013-02-24 00:58:00,
2013-02-23 20:13:00,32.7,29.0,29.93,ENE,57,0.0,4.0,85,0.00,,,0.00,weatherlink.com 1.10,2013-02-24 01:13:00,
2013-02-23 20:28:00,32.6,29.0,29.93,ESE,115,1.0,3.0,86,0.00,,,0.00,weatherlink.com 1.10,2013-02-24 01:28:00,
2013-02-23 20:43:00,32.3,29.0,29.93,NNW,330,0.0,3.0,88,0.00,,,0.00,weatherlink.com 1.10,2013-02-24 01:43:00,
2013-02-23 20:58:00,32.1,29.0,29.93,NW,315,2.0,4.0,88,0.00,,,0.00,weatherlink.com 1.10,2013-02-24 01:58:00,
2013-02-23 21:13:00,32.3,29.0,29.92,NNW,333,0.0,4.0,88,0.00,,,0.00,weatherlink.com 1.10,2013-02-24 02:13:00,
2013-02-23 21:28:00,32.7,29.0,29.92,NNW,338,0.0,3.0,87,0.00,,,0.00,weatherlink.com 1.10,2013-02-24 02:28:00,
2013-02-23 21:43:00,32.8,29.0,29.92,NW,321,0.0,1.0,86,0.00,,,0.00,weatherlink.com 1.10,2013-02-24 02:43:00,
2013-02-23 21:58:00,32.7,29.0,29.91,NNE,14,0.0,3.0,87,0.00,,,0.00,weatherlink.com 1.10,2013-02-24 02:58:00,
2013-02-23 22:13:00,32.2,29.0,29.90,NW,324,0.0,1.0,89,0.00,,,0.00,weatherlink.com 1.10,2013-02-24 03:13:00,
2013-02-23 22:28:00,32.1,30.0,29.89,SW,228,0.0,2.0,90,0.00,,,0.00,weatherlink.com 1.10,2013-02-24 03:28:00,
2013-02-23 22:43:00,32.2,30.0,29.89,SSW,207,0.0,1.0,90,0.00,,,0.00,weatherlink.com 1.10,2013-02-24 03:43:00,
2013-02-23 22:58:00,32.1,30.0,29.88,SE,140,0.0,1.0,91,0.00,,,0.00,weatherlink.com 1.10,2013-02-24 03:58:00,
2013-02-23 23:13:00,31.9,30.0,29.88,West,276,0.0,2.0,91,0.00,,,0.00,weatherlink.com 1.10,2013-02-24 04:13:00,
2013-02-23 23:28:00,31.9,29.0,29.88,West,269,0.0,4.0,90,0.00,,,0.00,weatherlink.com 1.10,2013-02-24 04:28:00,
2013-02-23 23:43:00,31.8,29.0,29.88,West,276,0.0,0.0,90,0.00,,,0.00,weatherlink.com 1.10,2013-02-24 04:43:00,
2013-02-23 23:58:00,31.5,29.0,29.88,SW,234,0.0,2.0,90,0.00,,,0.00,weatherlink.com 1.10,2013-02-24 04:58:00,